Time;durP1;ratioP1;P1;durP2;ratioP2;P2;SDS_P1;SDS_P2;PMS_P1;PMS_P2;Temp;Humidity;BMP_temperature;BMP_pressure;BME280_temperature;BME280_humidity;BME280_pressure;Samples;Min_cycle;Max_cycle;Signal;HPM_P1;HPM_P2
2023/06/17 00:02:05;;;;;;;7.55;3.15;;;18.50;60.10;;;;;;5035671;28;20030;-78
2023/06/17 00:04:31;;;;;;;7.35;4.25;;;18.40;60.10;;;;;;5033664;28;20029;-77
2023/06/17 00:06:56;;;;;;;9.85;3.70;;;18.40;60.30;;;;;;5035706;28;20096;-78
2023/06/17 00:09:22;;;;;;;10.27;5.65;;;18.40;61.00;;;;;;5034335;28;20079;-77
2023/06/17 00:11:48;;;;;;;11.15;5.03;;;18.30;61.20;;;;;;5034455;28;20030;-77
2023/06/17 00:14:16;;;;;;;9.63;4.70;;;18.30;61.40;;;;;;5035510;28;20029;-78
2023/06/17 00:16:45;;;;;;;10.80;4.45;;;18.20;61.40;;;;;;5034468;28;20064;-78
2023/06/17 00:19:15;;;;;;;6.82;3.63;;;18.20;61.40;;;;;;5035377;28;20128;-77
2023/06/17 00:21:48;;;;;;;6.47;3.72;;;18.10;61.40;;;;;;5035480;28;20529;-76
2023/06/17 00:24:14;;;;;;;8.77;3.50;;;18.10;61.50;;;;;;5035154;28;20049;-76
2023/06/17 00:26:40;;;;;;;5.40;2.97;;;18.00;62.10;;;;;;5034045;28;20093;-76
2023/06/17 00:29:06;;;;;;;5.32;2.88;;;18.00;62.20;;;;;;5035200;28;20052;-77
2023/06/17 00:31:33;;;;;;;9.02;3.65;;;18.00;62.30;;;;;;5034210;28;20428;-77
2023/06/17 00:33:59;;;;;;;7.22;4.40;;;17.90;63.00;;;;;;5035421;28;20079;-79
2023/06/17 00:36:24;;;;;;;7.68;2.88;;;17.80;63.40;;;;;;5035024;28;20037;-76
2023/06/17 00:38:50;;;;;;;7.43;4.13;;;17.80;64.20;;;;;;5034060;28;20504;-78
2023/06/17 00:41:16;;;;;;;7.75;4.38;;;17.70;64.70;;;;;;5034051;28;20478;-78
2023/06/17 00:43:42;;;;;;;6.78;3.55;;;17.70;64.90;;;;;;5035172;28;20159;-78
2023/06/17 00:46:16;;;;;;;5.53;3.50;;;17.60;64.80;;;;;;5033889;28;20108;-78
2023/06/17 00:48:42;;;;;;;8.25;4.03;;;17.50;65.00;;;;;;5034777;28;20029;-78
2023/06/17 00:51:08;;;;;;;7.75;4.95;;;17.50;65.70;;;;;;5033803;28;20402;-78
2023/06/17 00:53:34;;;;;;;13.30;6.45;;;17.40;66.10;;;;;;5034999;28;20438;-78
2023/06/17 00:56:01;;;;;;;9.43;6.00;;;17.40;66.50;;;;;;5033556;28;20026;-77
2023/06/17 00:58:27;;;;;;;8.65;5.45;;;17.30;66.70;;;;;;5034793;28;20033;-78
2023/06/17 01:00:53;;;;;;;7.80;4.45;;;17.30;66.60;;;;;;5033270;28;20022;-78
2023/06/17 01:03:18;;;;;;;8.18;4.32;;;17.20;66.40;;;;;;5033265;28;20033;-78
2023/06/17 01:05:49;;;;;;;9.07;4.80;;;17.20;66.20;;;;;;5034593;28;20026;-78
2023/06/17 01:08:44;;;;;;;7.05;4.13;;;17.20;66.30;;;;;;5034639;28;20385;-79
2023/06/17 01:11:16;;;;;;;8.90;4.38;;;17.10;66.90;;;;;;5031082;28;20033;-77
2023/06/17 01:13:45;;;;;;;9.65;4.88;;;17.10;67.20;;;;;;5033013;28;20021;-78
2023/06/17 01:16:12;;;;;;;7.80;4.35;;;17.10;67.70;;;;;;5033173;28;20042;-77
2023/06/17 01:18:40;;;;;;;8.00;4.93;;;17.00;67.80;;;;;;5034352;28;20037;-77
2023/06/17 01:21:08;;;;;;;12.48;4.88;;;17.00;68.10;;;;;;5034262;28;20187;-77
2023/06/17 01:23:35;;;;;;;6.82;4.75;;;17.00;68.50;;;;;;5034447;28;20033;-77
2023/06/17 01:26:01;;;;;;;8.80;4.90;;;16.90;68.70;;;;;;5034136;28;20032;-78
2023/06/17 01:28:29;;;;;;;7.55;4.53;;;16.90;69.00;;;;;;5033891;28;20030;-78
2023/06/17 01:30:56;;;;;;;9.00;5.05;;;16.90;69.40;;;;;;5033073;28;20036;-78
2023/06/17 01:33:23;;;;;;;8.38;4.97;;;16.80;69.90;;;;;;5034072;28;20404;-78
2023/06/17 01:36:17;;;;;;;8.43;4.90;;;16.80;70.30;;;;;;5034215;28;20482;-78
2023/06/17 01:38:46;;;;;;;9.10;5.50;;;16.70;70.90;;;;;;5033906;28;20028;-78
2023/06/17 01:41:22;;;;;;;8.40;4.63;;;16.60;70.90;;;;;;5034036;28;20014;-78
2023/06/17 01:43:49;;;;;;;7.15;5.07;;;16.60;71.10;;;;;;5034115;28;20108;-79
2023/06/17 01:46:15;;;;;;;5.65;3.90;;;16.60;71.20;;;;;;5032790;28;20032;-79
2023/06/17 01:48:41;;;;;;;14.20;5.60;;;16.50;71.30;;;;;;5034014;28;20062;-78
2023/06/17 01:51:07;;;;;;;10.20;5.80;;;16.50;71.40;;;;;;5032473;28;20022;-78
2023/06/17 01:53:33;;;;;;;9.10;5.55;;;16.40;71.40;;;;;;5034154;28;20022;-78
2023/06/17 01:55:59;;;;;;;11.68;6.18;;;16.40;71.30;;;;;;5015993;28;20017;-78
2023/06/17 01:58:25;;;;;;;8.55;5.97;;;16.40;71.30;;;;;;5032431;28;20385;-79
2023/06/17 02:00:50;;;;;;;13.70;6.88;;;16.30;71.10;;;;;;5033775;28;20071;-78
2023/06/17 02:03:17;;;;;;;9.85;6.88;;;16.30;71.20;;;;;;5032458;28;20045;-78
2023/06/17 02:05:43;;;;;;;9.02;6.78;;;16.20;71.30;;;;;;5015885;28;20036;-78
2023/06/17 02:08:09;;;;;;;9.75;6.88;;;16.20;71.40;;;;;;5033502;28;20387;-78
2023/06/17 02:10:35;;;;;;;10.52;7.28;;;16.10;71.40;;;;;;5015936;28;20023;-79
2023/06/17 02:13:03;;;;;;;11.02;6.65;;;16.10;71.70;;;;;;5032282;28;20108;-78
2023/06/17 02:15:29;;;;;;;10.38;7.40;;;16.10;71.80;;;;;;5033424;28;20041;-79
2023/06/17 02:17:56;;;;;;;11.07;7.10;;;16.00;71.90;;;;;;5032138;28;20490;-79
2023/06/17 02:20:22;;;;;;;9.52;6.95;;;16.00;72.10;;;;;;5033330;28;20051;-78
2023/06/17 02:22:48;;;;;;;8.40;6.03;;;15.90;72.10;;;;;;5032037;28;20489;-77
2023/06/17 02:25:14;;;;;;;9.90;6.80;;;15.90;72.40;;;;;;5031851;28;20613;-78
2023/06/17 02:27:40;;;;;;;9.45;7.25;;;15.90;72.50;;;;;;5031621;28;20113;-77
2023/06/17 02:30:07;;;;;;;9.30;7.07;;;15.90;72.80;;;;;;5033217;28;20029;-76
2023/06/17 02:32:33;;;;;;;9.60;7.10;;;15.90;72.90;;;;;;5032048;28;20032;-77
2023/06/17 02:34:58;;;;;;;10.73;7.47;;;15.80;73.10;;;;;;5015420;28;20022;-77
2023/06/17 02:37:25;;;;;;;11.63;7.03;;;15.80;73.10;;;;;;5031932;28;20030;-78
2023/06/17 02:39:51;;;;;;;13.18;7.53;;;15.80;73.30;;;;;;5032082;28;20445;-78
2023/06/17 02:42:17;;;;;;;9.93;7.32;;;15.70;73.70;;;;;;5032274;28;20113;-78
2023/06/17 02:44:42;;;;;;;11.43;7.38;;;15.70;73.80;;;;;;5015556;28;20132;-78
2023/06/17 02:47:08;;;;;;;10.95;7.78;;;15.70;73.80;;;;;;5033004;28;20025;-78
2023/06/17 02:49:34;;;;;;;12.20;7.18;;;15.70;73.90;;;;;;5031739;28;20044;-78
2023/06/17 02:51:59;;;;;;;14.90;8.10;;;15.70;74.10;;;;;;5015422;28;20026;-78
2023/06/17 02:54:25;;;;;;;13.95;7.95;;;15.60;74.10;;;;;;5031850;28;20056;-78
2023/06/17 02:56:50;;;;;;;11.20;8.15;;;15.60;74.30;;;;;;5033070;28;20482;-78
2023/06/17 02:59:17;;;;;;;11.65;7.90;;;15.60;74.80;;;;;;5031729;28;20544;-78
2023/06/17 03:01:43;;;;;;;13.60;8.30;;;15.50;75.20;;;;;;5032809;28;20037;-78
2023/06/17 03:04:12;;;;;;;12.63;8.25;;;15.50;75.40;;;;;;5032817;28;20029;-78
2023/06/17 03:06:40;;;;;;;9.90;7.65;;;15.50;75.50;;;;;;5031636;28;20032;-78
2023/06/17 03:09:09;;;;;;;12.77;8.88;;;15.50;75.70;;;;;;5033059;28;20037;-78
2023/06/17 03:11:36;;;;;;;11.23;8.52;;;15.50;75.80;;;;;;5032988;28;20108;-78
2023/06/17 03:14:02;;;;;;;9.88;7.50;;;15.50;76.00;;;;;;5032869;28;20033;-78
2023/06/17 03:16:31;;;;;;;11.75;7.75;;;15.40;76.30;;;;;;5032594;28;20080;-78
2023/06/17 03:18:58;;;;;;;11.63;8.38;;;15.40;76.70;;;;;;5032805;28;20048;-77
2023/06/17 03:21:25;;;;;;;11.15;7.65;;;15.40;76.90;;;;;;5031805;28;20026;-77
2023/06/17 03:23:51;;;;;;;11.00;7.93;;;15.40;77.30;;;;;;5031498;28;20090;-76
2023/06/17 03:26:17;;;;;;;12.60;8.45;;;15.40;77.60;;;;;;5015343;28;20116;-77
2023/06/17 03:28:43;;;;;;;12.15;8.23;;;15.30;77.70;;;;;;5032848;28;20534;-77
2023/06/17 03:31:10;;;;;;;10.70;7.50;;;15.30;78.00;;;;;;5032966;28;20106;-77
2023/06/17 03:33:36;;;;;;;10.98;8.25;;;15.30;78.20;;;;;;5031405;28;20515;-77
2023/06/17 03:36:01;;;;;;;10.13;7.18;;;15.30;78.20;;;;;;5031426;28;20033;-77
2023/06/17 03:38:27;;;;;;;10.95;7.80;;;15.20;78.20;;;;;;5032543;28;20026;-77
2023/06/17 03:40:53;;;;;;;11.57;8.50;;;15.20;78.30;;;;;;5017452;28;20473;-77
2023/06/17 03:43:18;;;;;;;11.82;7.88;;;15.20;78.50;;;;;;5034959;28;20036;-77
2023/06/17 03:45:44;;;;;;;12.15;7.72;;;15.20;78.60;;;;;;5035966;28;20026;-76
2023/06/17 03:48:10;;;;;;;13.05;8.25;;;15.20;78.80;;;;;;5036009;28;20514;-76
2023/06/17 03:50:35;;;;;;;11.65;8.10;;;15.20;78.80;;;;;;5035872;28;20036;-76
2023/06/17 03:53:01;;;;;;;13.27;7.72;;;15.20;78.90;;;;;;5018190;28;20037;-76
2023/06/17 03:55:26;;;;;;;14.07;8.27;;;15.20;79.00;;;;;;5034741;28;20033;-76
2023/06/17 03:57:52;;;;;;;10.90;8.70;;;15.10;79.00;;;;;;5017995;28;20485;-76
2023/06/17 04:00:19;;;;;;;11.85;8.25;;;15.10;79.20;;;;;;5035747;28;20029;-77
2023/06/17 04:02:45;;;;;;;12.23;8.20;;;15.10;79.30;;;;;;5034363;28;20039;-77
2023/06/17 04:05:12;;;;;;;11.45;8.82;;;15.10;79.50;;;;;;5035994;28;20525;-76
2023/06/17 04:07:39;;;;;;;14.63;9.05;;;15.10;79.70;;;;;;5034809;28;20105;-77
2023/06/17 04:10:08;;;;;;;11.10;8.02;;;15.00;79.80;;;;;;5034399;28;20033;-77
2023/06/17 04:12:36;;;;;;;12.43;8.90;;;15.10;80.10;;;;;;5035521;28;20018;-77
2023/06/17 04:15:01;;;;;;;11.27;9.15;;;15.10;80.30;;;;;;5034021;28;20034;-76
2023/06/17 04:17:27;;;;;;;15.45;9.65;;;15.10;80.50;;;;;;5034357;28;20030;-76
2023/06/17 04:19:54;;;;;;;11.60;8.68;;;15.10;80.80;;;;;;5036124;28;20426;-77
2023/06/17 04:22:20;;;;;;;13.43;9.68;;;15.10;81.00;;;;;;5051703;28;20048;-77
2023/06/17 04:24:46;;;;;;;14.88;9.55;;;15.10;81.10;;;;;;5030407;28;20087;-77
2023/06/17 04:27:11;;;;;;;14.38;9.80;;;15.10;81.90;;;;;;5033515;28;20022;-77
2023/06/17 04:29:37;;;;;;;12.68;9.65;;;15.10;81.30;;;;;;5032643;28;20052;-77
2023/06/17 04:32:03;;;;;;;12.25;9.15;;;15.10;81.30;;;;;;5035154;28;20057;-77
2023/06/17 04:34:29;;;;;;;13.98;10.27;;;15.20;81.40;;;;;;5033776;28;20030;-77
2023/06/17 04:36:58;;;;;;;13.32;9.77;;;15.20;81.40;;;;;;5017509;28;20033;-77
2023/06/17 04:39:27;;;;;;;11.73;9.57;;;15.20;81.40;;;;;;5033907;28;20037;-77
2023/06/17 04:41:53;;;;;;;11.98;9.43;;;15.20;81.40;;;;;;5017601;28;20028;-77
2023/06/17 04:44:19;;;;;;;15.98;10.60;;;15.30;81.50;;;;;;5033786;28;20029;-78
2023/06/17 04:46:45;;;;;;;13.93;10.38;;;15.30;81.60;;;;;;5017520;28;20032;-77
2023/06/17 04:49:11;;;;;;;14.70;10.20;;;15.30;81.60;;;;;;5034873;28;20378;-77
2023/06/17 04:51:40;;;;;;;13.73;9.98;;;15.40;81.70;;;;;;5033488;28;20025;-78
2023/06/17 04:54:06;;;;;;;16.10;11.02;;;15.40;81.70;;;;;;5017764;28;20056;-77
2023/06/17 04:56:32;;;;;;;17.05;10.90;;;15.40;81.70;;;;;;5034749;28;20037;-78
2023/06/17 04:58:58;;;;;;;14.77;10.73;;;15.40;81.80;;;;;;5033672;28;20064;-78
2023/06/17 05:01:23;;;;;;;17.35;10.38;;;15.50;81.90;;;;;;5034902;28;20355;-79
2023/06/17 05:03:49;;;;;;;15.15;11.38;;;15.50;81.90;;;;;;5016764;28;20033;-77
2023/06/17 05:06:14;;;;;;;16.58;11.73;;;15.50;81.90;;;;;;5034451;28;20030;-77
2023/06/17 05:08:40;;;;;;;15.23;11.20;;;15.60;81.90;;;;;;5018553;28;20083;-78
2023/06/17 05:11:05;;;;;;;16.00;11.45;;;15.60;81.80;;;;;;5046811;28;20033;-78
2023/06/17 05:13:31;;;;;;;16.13;11.05;;;15.60;81.70;;;;;;5029439;28;20021;-78
2023/06/17 05:15:57;;;;;;;14.30;11.40;;;15.70;81.80;;;;;;5006870;28;20553;-79
2023/06/17 05:18:22;;;;;;;16.63;11.55;;;15.70;81.80;;;;;;5047883;28;20029;-78
2023/06/17 05:20:48;;;;;;;14.13;10.85;;;15.70;81.80;;;;;;5006524;28;20496;-77
2023/06/17 05:23:13;;;;;;;18.30;11.00;;;15.80;82.00;;;;;;5051896;28;20018;-77
2023/06/17 05:25:39;;;;;;;14.98;10.55;;;15.80;82.10;;;;;;5050268;28;20035;-77
2023/06/17 05:28:10;;;;;;;14.23;10.73;;;15.80;82.20;;;;;;5030648;28;20026;-77
2023/06/17 05:30:36;;;;;;;17.67;11.20;;;15.90;82.20;;;;;;5033003;28;20030;-77
2023/06/17 05:33:02;;;;;;;14.13;11.13;;;15.90;82.30;;;;;;5045175;28;20111;-77
2023/06/17 05:35:28;;;;;;;16.70;11.20;;;16.00;82.40;;;;;;5033408;28;20117;-77
2023/06/17 05:37:54;;;;;;;14.82;11.20;;;16.00;82.40;;;;;;5031286;28;20026;-78
2023/06/17 05:40:20;;;;;;;16.20;11.07;;;16.00;82.40;;;;;;5031741;28;20036;-78
2023/06/17 05:42:45;;;;;;;14.80;10.52;;;16.10;82.50;;;;;;5032599;28;20033;-77
2023/06/17 05:45:11;;;;;;;15.10;10.13;;;16.20;82.60;;;;;;5014949;28;20030;-77
2023/06/17 05:47:37;;;;;;;12.15;9.05;;;16.20;82.70;;;;;;5032395;28;20032;-77
2023/06/17 05:50:02;;;;;;;12.80;10.32;;;16.30;82.80;;;;;;5032418;28;20482;-77
2023/06/17 05:52:28;;;;;;;13.02;9.68;;;16.30;82.90;;;;;;5033657;28;20060;-77
2023/06/17 05:54:54;;;;;;;13.45;9.45;;;16.40;82.90;;;;;;5032213;28;20486;-77
2023/06/17 05:57:21;;;;;;;14.68;10.52;;;16.50;83.00;;;;;;5042588;28;20426;-77
2023/06/17 05:59:46;;;;;;;12.73;9.90;;;16.50;83.20;;;;;;5016079;28;20032;-77
2023/06/17 06:02:12;;;;;;;12.95;10.10;;;16.50;83.20;;;;;;5031420;28;20030;-78
2023/06/17 06:04:38;;;;;;;13.63;9.90;;;16.60;83.30;;;;;;5015625;28;20037;-76
2023/06/17 06:07:03;;;;;;;19.38;9.88;;;16.60;83.40;;;;;;5031855;28;20024;-77
2023/06/17 06:09:29;;;;;;;12.68;8.82;;;16.70;83.50;;;;;;5032537;28;20116;-76
2023/06/17 06:11:55;;;;;;;11.40;8.52;;;16.70;83.20;;;;;;5050362;28;20060;-77
2023/06/17 06:14:20;;;;;;;11.65;8.15;;;16.80;83.10;;;;;;5051934;28;20029;-77
2023/06/17 06:16:46;;;;;;;11.65;7.97;;;16.90;83.10;;;;;;5018788;28;20107;-76
2023/06/17 06:19:12;;;;;;;13.57;8.18;;;16.80;82.80;;;;;;5052063;28;20029;-77
2023/06/17 06:21:37;;;;;;;12.52;7.68;;;16.90;82.60;;;;;;5044434;28;20036;-77
2023/06/17 06:24:03;;;;;;;11.32;8.18;;;17.00;82.50;;;;;;5031617;28;20559;-77
2023/06/17 06:26:29;;;;;;;14.15;7.80;;;17.00;82.50;;;;;;5031543;28;20052;-77
2023/06/17 06:28:54;;;;;;;12.60;7.57;;;17.10;82.20;;;;;;5032140;28;20101;-77
2023/06/17 06:31:20;;;;;;;11.23;7.05;;;17.10;82.10;;;;;;5031795;28;20024;-79
2023/06/17 06:33:46;;;;;;;12.85;6.20;;;17.20;82.00;;;;;;5033247;28;20177;-76
2023/06/17 06:36:12;;;;;;;8.88;6.05;;;17.20;81.60;;;;;;5015626;28;20033;-77
2023/06/17 06:38:38;;;;;;;11.13;4.68;;;17.30;81.30;;;;;;5015266;28;20021;-77
2023/06/17 06:41:03;;;;;;;7.80;4.93;;;17.40;80.30;;;;;;5032308;28;20028;-76
2023/06/17 06:43:29;;;;;;;11.82;4.70;;;17.40;79.00;;;;;;5031833;28;20536;-77
2023/06/17 06:45:55;;;;;;;5.93;3.55;;;17.50;78.20;;;;;;4999106;28;20030;-77
2023/06/17 06:48:21;;;;;;;9.02;3.75;;;17.50;77.40;;;;;;5031572;28;20014;-77
2023/06/17 06:50:46;;;;;;;9.85;4.18;;;17.60;76.10;;;;;;4998949;28;20022;-76
2023/06/17 06:53:12;;;;;;;7.72;4.13;;;17.60;76.10;;;;;;4999000;28;20029;-77
2023/06/17 06:55:37;;;;;;;7.47;3.90;;;17.70;74.90;;;;;;5015174;28;20121;-77
2023/06/17 06:58:03;;;;;;;5.68;3.70;;;17.70;74.60;;;;;;5014900;28;20121;-77
2023/06/17 07:00:29;;;;;;;4.80;3.15;;;17.80;74.30;;;;;;5035918;28;20040;-77
2023/06/17 07:02:56;;;;;;;5.40;3.42;;;17.90;73.90;;;;;;5024130;28;20493;-77
2023/06/17 07:05:22;;;;;;;7.53;3.30;;;17.90;73.40;;;;;;5042240;28;20113;-78
2023/06/17 07:07:48;;;;;;;6.28;3.55;;;18.00;73.00;;;;;;5026231;28;20026;-77
2023/06/17 07:10:13;;;;;;;6.22;3.55;;;18.10;72.80;;;;;;5040756;28;20072;-77
2023/06/17 07:12:41;;;;;;;7.05;3.72;;;18.10;72.70;;;;;;5042043;28;20033;-78
2023/06/17 07:15:07;;;;;;;5.72;3.58;;;18.20;72.20;;;;;;5036862;28;20069;-77
2023/06/17 07:17:32;;;;;;;6.63;3.00;;;18.20;71.60;;;;;;5036424;28;20068;-76
2023/06/17 07:19:59;;;;;;;5.85;3.10;;;18.30;71.30;;;;;;5035173;28;20033;-76
2023/06/17 07:22:25;;;;;;;6.07;3.67;;;18.40;70.90;;;;;;5018767;28;20060;-78
2023/06/17 07:24:50;;;;;;;9.23;3.70;;;18.40;70.30;;;;;;5035263;28;20069;-78
2023/06/17 07:27:16;;;;;;;6.18;3.40;;;18.50;69.70;;;;;;5035098;28;20022;-78
2023/06/17 07:29:42;;;;;;;6.20;3.58;;;18.60;69.30;;;;;;5041488;28;20068;-78
2023/06/17 07:32:07;;;;;;;6.00;3.40;;;18.70;68.90;;;;;;5046776;28;20029;-79
2023/06/17 07:34:34;;;;;;;6.82;3.13;;;18.70;67.70;;;;;;5034239;28;20025;-78
2023/06/17 07:37:00;;;;;;;6.53;3.10;;;18.80;67.50;;;;;;5054953;28;20067;-79
2023/06/17 07:39:26;;;;;;;7.63;3.30;;;18.90;66.60;;;;;;5038114;28;20470;-79
2023/06/17 07:41:51;;;;;;;4.35;2.63;;;18.90;66.20;;;;;;5054781;28;20035;-78
2023/06/17 07:44:17;;;;;;;8.07;3.78;;;19.00;66.00;;;;;;5055855;28;20033;-80
2023/06/17 07:46:43;;;;;;;9.77;3.53;;;19.10;65.80;;;;;;5055881;28;20033;-80
2023/06/17 07:49:09;;;;;;;5.60;3.40;;;19.10;65.30;;;;;;5054750;28;20025;-79
2023/06/17 07:51:35;;;;;;;5.20;2.85;;;19.20;65.30;;;;;;5054645;28;20029;-79
2023/06/17 07:54:00;;;;;;;7.63;3.08;;;19.30;65.00;;;;;;5049728;28;20040;-80
2023/06/17 07:56:27;;;;;;;7.05;3.65;;;19.40;64.60;;;;;;5046100;28;20021;-78
2023/06/17 07:58:53;;;;;;;6.03;2.97;;;19.50;63.40;;;;;;5026529;28;20045;-79
2023/06/17 08:01:20;;;;;;;6.93;3.28;;;19.60;63.30;;;;;;5046308;28;20068;-79
2023/06/17 08:03:46;;;;;;;5.00;3.15;;;19.70;62.90;;;;;;5037519;28;20075;-79
2023/06/17 08:06:14;;;;;;;4.68;2.97;;;19.80;62.50;;;;;;5034317;28;20025;-79
2023/06/17 08:08:40;;;;;;;5.18;3.05;;;19.90;61.80;;;;;;5035547;28;20528;-79
2023/06/17 08:11:07;;;;;;;5.70;2.65;;;19.90;61.20;;;;;;5034132;28;20018;-79
2023/06/17 08:13:33;;;;;;;5.28;2.80;;;20.10;61.00;;;;;;5035409;28;20044;-78
2023/06/17 08:15:58;;;;;;;8.57;2.97;;;20.10;60.30;;;;;;5035221;28;20084;-79
2023/06/17 08:18:24;;;;;;;5.80;3.25;;;20.20;60.30;;;;;;5053961;28;20025;-79
2023/06/17 08:20:50;;;;;;;8.82;3.05;;;20.30;59.20;;;;;;5055334;28;20040;-79
2023/06/17 08:23:15;;;;;;;10.40;2.90;;;20.40;58.80;;;;;;5053970;28;20500;-80
2023/06/17 08:25:41;;;;;;;8.50;2.72;;;20.50;58.20;;;;;;5054688;28;20492;-79
2023/06/17 08:28:07;;;;;;;6.13;2.90;;;20.60;57.30;;;;;;5053490;28;20405;-79
2023/06/17 08:30:33;;;;;;;4.65;2.47;;;20.80;56.90;;;;;;5043818;28;20029;-79
2023/06/17 08:32:58;;;;;;;6.80;2.65;;;20.80;56.30;;;;;;5043127;28;20068;-79
2023/06/17 08:35:24;;;;;;;4.85;2.90;;;20.90;56.20;;;;;;5045547;28;20033;-79
2023/06/17 08:37:50;;;;;;;4.95;2.78;;;21.10;56.00;;;;;;5042232;28;20060;-80
2023/06/17 08:40:16;;;;;;;5.18;3.05;;;21.20;55.60;;;;;;5051790;28;20029;-79
2023/06/17 08:42:42;;;;;;;5.82;3.13;;;21.20;55.10;;;;;;5054727;28;20033;-79
2023/06/17 08:45:09;;;;;;;5.95;2.97;;;21.30;54.90;;;;;;5054562;28;20048;-78
2023/06/17 08:47:35;;;;;;;6.10;2.38;;;21.40;54.80;;;;;;5054602;28;20013;-79
2023/06/17 08:50:02;;;;;;;5.55;2.65;;;21.50;54.70;;;;;;5053502;28;20112;-78
2023/06/17 08:52:31;;;;;;;4.60;2.88;;;21.60;54.70;;;;;;5052648;28;20489;-78
2023/06/17 08:55:00;;;;;;;6.35;2.78;;;21.70;54.50;;;;;;5052580;28;20036;-79
2023/06/17 08:57:27;;;;;;;7.55;3.05;;;21.80;54.20;;;;;;5052421;28;20370;-79
2023/06/17 08:59:53;;;;;;;6.22;3.08;;;21.90;53.80;;;;;;5053092;28;20184;-79
2023/06/17 09:02:21;;;;;;;5.85;2.50;;;22.00;53.30;;;;;;5051369;28;20140;-81
2023/06/17 09:04:46;;;;;;;3.97;2.58;;;22.10;53.00;;;;;;5052192;28;20036;-76
2023/06/17 09:07:12;;;;;;;5.43;2.35;;;22.20;52.60;;;;;;5054216;28;20029;-78
2023/06/17 09:09:38;;;;;;;8.52;2.50;;;22.30;51.90;;;;;;5053070;28;20100;-77
2023/06/17 09:12:05;;;;;;;6.07;2.80;;;22.40;51.20;;;;;;5054079;28;20049;-76
2023/06/17 09:14:32;;;;;;;6.60;2.85;;;22.40;50.40;;;;;;5053043;28;20098;-76
2023/06/17 09:16:58;;;;;;;4.32;2.90;;;22.50;50.20;;;;;;5046428;28;20053;-76
2023/06/17 09:19:24;;;;;;;5.57;2.55;;;22.60;49.80;;;;;;5035449;28;20040;-76
2023/06/17 09:21:50;;;;;;;5.93;3.28;;;22.70;49.50;;;;;;5054235;28;20036;-77
2023/06/17 09:24:15;;;;;;;6.20;2.85;;;22.80;49.40;;;;;;5052826;28;20393;-76
2023/06/17 09:26:42;;;;;;;3.90;2.40;;;22.80;49.10;;;;;;5019868;28;20021;-76
2023/06/17 09:29:10;;;;;;;4.93;2.42;;;22.90;48.90;;;;;;5053062;28;20071;-76
2023/06/17 09:31:53;;;;;;;4.93;2.28;;;23.00;48.70;;;;;;5054053;28;20135;-76
2023/06/17 09:34:22;;;;;;;6.15;2.38;;;23.00;48.20;;;;;;5053895;28;20017;-76
2023/06/17 09:37:00;;;;;;;4.80;2.25;;;23.10;48.30;;;;;;5035520;28;20036;-75
2023/06/17 09:39:30;;;;;;;5.22;2.15;;;23.10;48.20;;;;;;5052160;28;20108;-76
2023/06/17 09:41:56;;;;;;;3.28;1.90;;;23.20;48.10;;;;;;5049651;28;20025;-82
2023/06/17 09:44:23;;;;;;;3.72;2.13;;;23.20;48.00;;;;;;5036587;28;20045;-80
2023/06/17 09:46:50;;;;;;;4.93;2.38;;;23.30;47.80;;;;;;5035141;28;20030;-82
2023/06/17 09:49:23;;;;;;;6.10;2.35;;;23.30;47.70;;;;;;5034122;28;20029;-81
2023/06/17 09:51:51;;;;;;;3.20;1.80;;;23.40;47.60;;;;;;5033745;28;20014;-80
2023/06/17 09:54:19;;;;;;;4.97;2.03;;;23.40;47.40;;;;;;5032351;28;20052;-81
2023/06/17 09:56:46;;;;;;;4.20;2.00;;;23.60;47.30;;;;;;4999877;28;20095;-82
2023/06/17 09:59:12;;;;;;;3.63;1.85;;;23.70;47.10;;;;;;5033854;28;20025;-81
2023/06/17 10:01:41;;;;;;;6.60;2.55;;;23.70;47.10;;;;;;5032406;28;20063;-81
2023/06/17 10:04:07;;;;;;;3.42;2.13;;;23.80;47.20;;;;;;5033755;28;20474;-81
2023/06/17 10:06:35;;;;;;;4.85;2.40;;;23.90;46.90;;;;;;5033116;28;20030;-81
2023/06/17 10:09:06;;;;;;;6.57;2.13;;;23.90;46.30;;;;;;5033420;28;20025;-81
2023/06/17 10:11:34;;;;;;;4.05;2.17;;;24.00;45.90;;;;;;5032496;28;20038;-82
2023/06/17 10:14:11;;;;;;;4.13;2.35;;;24.10;45.80;;;;;;5033236;28;20101;-82
2023/06/17 10:16:42;;;;;;;4.10;2.20;;;24.10;45.30;;;;;;5033124;28;20131;-81
2023/06/17 10:19:10;;;;;;;3.35;1.73;;;24.20;45.10;;;;;;5033387;28;20029;-80
2023/06/17 10:21:46;;;;;;;4.60;1.90;;;24.30;45.10;;;;;;5033306;28;20049;-74
2023/06/17 10:24:13;;;;;;;3.75;2.28;;;24.40;44.80;;;;;;5033057;28;20029;-74
2023/06/17 10:26:39;;;;;;;2.90;1.70;;;24.50;44.80;;;;;;5033113;28;20018;-74
2023/06/17 10:29:07;;;;;;;5.47;2.30;;;24.60;44.50;;;;;;5015409;28;20025;-75
2023/06/17 10:31:40;;;;;;;3.28;2.20;;;24.70;44.40;;;;;;5015624;28;20029;-74
2023/06/17 10:34:07;;;;;;;4.30;1.98;;;24.80;44.20;;;;;;5031903;28;20371;-74
2023/06/17 10:36:37;;;;;;;4.05;2.40;;;24.90;43.90;;;;;;5033264;28;20112;-73
2023/06/17 10:39:10;;;;;;;3.72;1.77;;;25.00;43.50;;;;;;5033153;28;20033;-73
2023/06/17 10:41:38;;;;;;;4.50;1.92;;;25.10;43.30;;;;;;5033072;28;20032;-74
2023/06/17 10:44:30;;;;;;;5.00;2.08;;;25.30;43.10;;;;;;5031727;28;20096;-73
2023/06/17 10:46:56;;;;;;;3.75;1.98;;;25.50;42.50;;;;;;5031656;28;20164;-75
2023/06/17 10:49:22;;;;;;;5.18;2.00;;;25.70;42.40;;;;;;5034986;28;20501;-74
2023/06/17 10:51:55;;;;;;;3.88;1.80;;;25.90;42.20;;;;;;5019182;28;20397;-75
2023/06/17 10:54:29;;;;;;;5.22;1.80;;;26.00;42.00;;;;;;5037136;28;20100;-74
2023/06/17 10:56:55;;;;;;;3.97;1.92;;;26.20;41.80;;;;;;5036843;28;20031;-74
2023/06/17 10:59:31;;;;;;;5.00;2.13;;;26.40;41.70;;;;;;5019251;28;20022;-74
2023/06/17 11:02:06;;;;;;;3.72;1.92;;;26.60;41.10;;;;;;5035788;28;20104;-75
2023/06/17 11:04:40;;;;;;;3.80;2.03;;;26.80;40.60;;;;;;5035502;28;20056;-75
2023/06/17 11:07:07;;;;;;;4.53;1.80;;;27.10;40.50;;;;;;5036746;28;20056;-75
2023/06/17 11:09:34;;;;;;;6.07;1.88;;;27.30;40.40;;;;;;5036852;28;20099;-74
2023/06/17 11:12:02;;;;;;;3.55;1.50;;;27.50;40.30;;;;;;5036863;28;20109;-74
2023/06/17 11:14:29;;;;;;;3.00;1.52;;;27.70;40.00;;;;;;5036674;28;20030;-74
2023/06/17 11:16:54;;;;;;;3.53;1.83;;;27.90;39.60;;;;;;5035288;28;20050;-74
2023/06/17 11:19:20;;;;;;;3.45;1.75;;;28.10;39.20;;;;;;5036523;28;20040;-75
2023/06/17 11:21:57;;;;;;;3.75;1.70;;;28.30;38.60;;;;;;5018823;28;20478;-74
2023/06/17 11:24:23;;;;;;;3.58;1.70;;;28.60;38.00;;;;;;5036402;28;20022;-75
2023/06/17 11:26:48;;;;;;;2.42;1.42;;;28.70;37.80;;;;;;5035174;28;20044;-74
2023/06/17 11:29:14;;;;;;;2.75;1.52;;;29.00;37.60;;;;;;5035119;28;20018;-75
2023/06/17 11:31:40;;;;;;;3.00;1.40;;;29.20;37.20;;;;;;5035168;28;20399;-74
2023/06/17 11:34:06;;;;;;;2.58;1.33;;;29.40;36.90;;;;;;5024825;28;20057;-74
2023/06/17 11:36:34;;;;;;;4.32;1.80;;;29.60;36.60;;;;;;5051302;28;20033;-75
2023/06/17 11:39:00;;;;;;;2.65;1.52;;;29.80;36.40;;;;;;5037331;28;20065;-75
2023/06/17 11:41:27;;;;;;;3.10;1.60;;;29.90;36.20;;;;;;5027029;28;20040;-75
2023/06/17 11:43:52;;;;;;;4.85;2.00;;;30.20;36.20;;;;;;5017942;28;20037;-75
2023/06/17 11:46:23;;;;;;;5.40;1.55;;;30.40;36.10;;;;;;5034884;28;20417;-74
2023/06/17 11:48:48;;;;;;;3.15;1.60;;;30.60;35.90;;;;;;5035951;28;20026;-73
2023/06/17 11:51:18;;;;;;;3.80;1.50;;;30.70;35.70;;;;;;5018334;28;20025;-74
2023/06/17 11:53:45;;;;;;;2.67;1.70;;;30.90;35.40;;;;;;5036099;28;20100;-73
2023/06/17 11:56:15;;;;;;;3.15;1.70;;;31.10;35.40;;;;;;5018046;28;20025;-73
2023/06/17 11:58:42;;;;;;;3.90;1.88;;;31.30;35.30;;;;;;5035810;28;20025;-74
2023/06/17 12:01:09;;;;;;;5.20;1.80;;;31.50;35.00;;;;;;5033361;28;20029;-73
2023/06/17 12:03:36;;;;;;;3.25;1.65;;;31.70;35.30;;;;;;5034319;28;20441;-73
2023/06/17 12:06:02;;;;;;;2.85;1.60;;;31.90;34.40;;;;;;5035570;28;20113;-74
2023/06/17 12:08:36;;;;;;;4.40;1.63;;;32.10;34.10;;;;;;5017894;28;20087;-74
2023/06/17 12:11:09;;;;;;;3.88;1.60;;;32.40;33.70;;;;;;5035846;28;20064;-74
2023/06/17 12:13:42;;;;;;;3.17;1.52;;;32.60;33.60;;;;;;5035795;28;20034;-74
2023/06/17 12:16:22;;;;;;;5.63;1.80;;;32.80;33.40;;;;;;5035288;28;20037;-74
2023/06/17 12:18:50;;;;;;;2.35;1.33;;;33.00;33.50;;;;;;5034468;28;20029;-74
2023/06/17 12:21:17;;;;;;;3.58;1.80;;;33.20;33.50;;;;;;5034219;28;20033;-73
2023/06/17 12:23:44;;;;;;;3.67;1.70;;;33.40;33.50;;;;;;5035274;28;20104;-74
2023/06/17 12:26:10;;;;;;;3.40;1.80;;;33.70;33.30;;;;;;5034075;28;20087;-73
2023/06/17 12:28:36;;;;;;;4.15;2.00;;;33.80;32.80;;;;;;5035174;28;20029;-73
2023/06/17 12:31:02;;;;;;;2.55;1.73;;;33.90;32.50;;;;;;5034054;28;20368;-74
2023/06/17 12:33:28;;;;;;;4.25;1.55;;;34.10;32.30;;;;;;5033968;28;20474;-73
2023/06/17 12:35:53;;;;;;;3.15;1.40;;;34.30;32.10;;;;;;5034041;28;20037;-73
2023/06/17 12:38:23;;;;;;;2.08;1.45;;;34.40;32.00;;;;;;5017327;28;20494;-73
2023/06/17 12:40:50;;;;;;;3.13;1.60;;;34.60;32.00;;;;;;5034060;28;20041;-74
2023/06/17 12:43:16;;;;;;;2.60;1.60;;;34.80;32.00;;;;;;5000989;28;20040;-75